Terminal Aerodrome Forecast
Issued by NWS

Home | Current Version | Previous Version | Text Only | Print | Product List | Glossary On
Versions: 1 2 3 4 5 6 7 8 9 10 11 12 13 14 15 16 17 18 19 20 21 22 23 24 25
000
FTAK31 PAFA 011132
TAFABT
TAF
PABT 011132Z 0112/0212 12005KT 5SM FU FEW025 SCT050 BKN100
     FM020000 23012G18KT 6SM FU SCT050 BKN100
     FM020600 23008KT 5SM FU FEW025 SCT050 BKN100=

USA.gov is the U.S. government's official web portal to all federal, state and local government web resources and services.